This is the latest recevied weather packets stored in our database for station/object IT9RID. If no packets are shown the sender has not sent any weather packets the latest 10 day(s).
| Time | Temp. | Humidity | Pressure | Rain* | Wind** | Luminosity | Snow |
|---|---|---|---|---|---|---|---|
| 1788117509 | 29.44° C | 82% | 1014.3 hPa | 0 mm | - | - | - |
| 1788116308 | 29.44° C | 82% | 1014.2 hPa | 0 mm | - | - | - |
| 1788115708 | 29.44° C | 81% | 1014 hPa | 0 mm | - | - | - |
| 1788115108 | 29.44° C | 81% | 1014 hPa | 0 mm | - | - | - |
| 1788114508 | 29.44° C | 81% | 1013.8 hPa | 0 mm | - | - | - |
| 1788113908 | 29.44° C | 81% | 1013.8 hPa | 0 mm | - | - | - |
| 1788113307 | 29.44° C | 81% | 1013.6 hPa | 0 mm | - | - | - |
| 1788112107 | 29.44° C | 81% | 1013.5 hPa | 0 mm | - | - | - |
| 1788111508 | 29.44° C | 80% | 1013.5 hPa | 0 mm | - | - | - |
| 1788110907 | 30° C | 80% | 1013.5 hPa | 0 mm | - | - | - |
| 1788110307 | 30° C | 80% | 1013.4 hPa | 0 mm | - | - | - |
| 1788109707 | 30° C | 80% | 1013.4 hPa | 0 mm | - | - | - |
| 1788109108 | 30° C | 79% | 1013.5 hPa | 0 mm | - | - | - |
| 1788108506 | 30.56° C | 77% | 1013.6 hPa | 0 mm | - | - | - |
| 1788107906 | 30.56° C | 75% | 1013.6 hPa | 0 mm | - | - | - |
| 1788107309 | 30.56° C | 75% | 1013.7 hPa | 0 mm | - | - | - |
| 1788106706 | 30.56° C | 77% | 1013.7 hPa | 0 mm | - | - | - |
| 1788104905 | 31.11° C | 77% | 1013.7 hPa | 0 mm | - | - | - |
| 1788104307 | 31.11° C | 76% | 1013.6 hPa | 0 mm | - | - | - |
| 1788103705 | 32.22° C | 73% | 1013.6 hPa | 0 mm | - | - | - |
| 1788103105 | 32.22° C | 72% | 1013.4 hPa | 0 mm | - | - | - |
| 1788102508 | 32.22° C | 69% | 1013.5 hPa | 0 mm | - | - | - |
| 1788101904 | 32.78° C | 65% | 1013.6 hPa | 0 mm | - | - | - |
| 1788101304 | 33.33° C | 61% | 1013.5 hPa | 0 mm | - | - | - |
| 1788100704 | 33.89° C | 55% | 1013.5 hPa | 0 mm | - | - | - |
* Rain latest hour (hover to see other rain measurements)
** Current wind speed in m/s (hover to see current wind gust speed)